sensor_id;sensor_type;location;lat;lon;timestamp;P1;durP1;ratioP1;P2;durP2;ratioP2
789;SDS011;378;48.844;9.156;2023-05-24T00:00:10;6.50;;;3.70;;
789;SDS011;378;48.844;9.156;2023-05-24T00:02:39;8.45;;;3.00;;
789;SDS011;378;48.844;9.156;2023-05-24T00:05:07;8.52;;;3.50;;
789;SDS011;378;48.844;9.156;2023-05-24T00:07:34;12.43;;;3.42;;
789;SDS011;378;48.844;9.156;2023-05-24T00:10:01;5.78;;;3.05;;
789;SDS011;378;48.844;9.156;2023-05-24T00:12:29;6.93;;;3.33;;
789;SDS011;378;48.844;9.156;2023-05-24T00:14:57;4.82;;;2.78;;
789;SDS011;378;48.844;9.156;2023-05-24T00:17:24;12.65;;;3.10;;
789;SDS011;378;48.844;9.156;2023-05-24T00:19:51;4.82;;;2.80;;
789;SDS011;378;48.844;9.156;2023-05-24T00:22:18;7.22;;;3.10;;
789;SDS011;378;48.844;9.156;2023-05-24T00:24:46;11.32;;;3.28;;
789;SDS011;378;48.844;9.156;2023-05-24T00:27:12;7.50;;;3.38;;
789;SDS011;378;48.844;9.156;2023-05-24T00:29:39;8.93;;;3.25;;
789;SDS011;378;48.844;9.156;2023-05-24T00:32:08;7.20;;;3.25;;
789;SDS011;378;48.844;9.156;2023-05-24T00:34:34;8.18;;;3.45;;
789;SDS011;378;48.844;9.156;2023-05-24T00:37:01;7.28;;;3.33;;
789;SDS011;378;48.844;9.156;2023-05-24T00:39:28;6.13;;;3.10;;
789;SDS011;378;48.844;9.156;2023-05-24T00:41:55;9.55;;;3.55;;
789;SDS011;378;48.844;9.156;2023-05-24T00:44:22;9.23;;;3.33;;
789;SDS011;378;48.844;9.156;2023-05-24T00:46:48;6.28;;;3.00;;
789;SDS011;378;48.844;9.156;2023-05-24T00:49:17;7.53;;;3.38;;
789;SDS011;378;48.844;9.156;2023-05-24T00:51:44;7.95;;;3.33;;
789;SDS011;378;48.844;9.156;2023-05-24T00:54:11;10.38;;;3.33;;
789;SDS011;378;48.844;9.156;2023-05-24T00:56:39;12.80;;;3.30;;
789;SDS011;378;48.844;9.156;2023-05-24T00:59:06;7.70;;;2.92;;
789;SDS011;378;48.844;9.156;2023-05-24T01:01:33;9.10;;;3.05;;
789;SDS011;378;48.844;9.156;2023-05-24T01:04:01;7.20;;;3.22;;
789;SDS011;378;48.844;9.156;2023-05-24T01:06:29;10.57;;;3.40;;
789;SDS011;378;48.844;9.156;2023-05-24T01:09:07;7.25;;;3.00;;
789;SDS011;378;48.844;9.156;2023-05-24T01:11:52;7.20;;;2.70;;
789;SDS011;378;48.844;9.156;2023-05-24T01:14:28;10.35;;;3.80;;
789;SDS011;378;48.844;9.156;2023-05-24T01:17:03;5.20;;;2.88;;
789;SDS011;378;48.844;9.156;2023-05-24T01:22:36;15.60;;;3.47;;
789;SDS011;378;48.844;9.156;2023-05-24T01:25:42;7.60;;;3.10;;
789;SDS011;378;48.844;9.156;2023-05-24T01:28:15;10.52;;;3.22;;
789;SDS011;378;48.844;9.156;2023-05-24T01:30:42;8.70;;;3.00;;
789;SDS011;378;48.844;9.156;2023-05-24T01:33:10;10.10;;;3.38;;
789;SDS011;378;48.844;9.156;2023-05-24T01:35:37;10.10;;;3.03;;
789;SDS011;378;48.844;9.156;2023-05-24T01:38:06;9.98;;;3.53;;
789;SDS011;378;48.844;9.156;2023-05-24T01:40:33;14.57;;;3.47;;
789;SDS011;378;48.844;9.156;2023-05-24T01:43:03;13.85;;;3.20;;
789;SDS011;378;48.844;9.156;2023-05-24T01:45:37;14.35;;;3.42;;
789;SDS011;378;48.844;9.156;2023-05-24T01:48:10;12.63;;;3.42;;
789;SDS011;378;48.844;9.156;2023-05-24T01:50:44;8.55;;;2.95;;
789;SDS011;378;48.844;9.156;2023-05-24T01:53:15;7.97;;;3.13;;
789;SDS011;378;48.844;9.156;2023-05-24T01:55:44;12.07;;;3.40;;
789;SDS011;378;48.844;9.156;2023-05-24T01:58:14;6.60;;;3.17;;
789;SDS011;378;48.844;9.156;2023-05-24T02:00:46;10.55;;;3.47;;
789;SDS011;378;48.844;9.156;2023-05-24T02:03:13;13.13;;;3.70;;
789;SDS011;378;48.844;9.156;2023-05-24T02:05:40;13.73;;;3.75;;
789;SDS011;378;48.844;9.156;2023-05-24T02:08:08;12.38;;;3.88;;
789;SDS011;378;48.844;9.156;2023-05-24T02:10:35;10.77;;;3.80;;
789;SDS011;378;48.844;9.156;2023-05-24T02:13:03;19.67;;;3.47;;
789;SDS011;378;48.844;9.156;2023-05-24T02:15:30;12.63;;;3.53;;
789;SDS011;378;48.844;9.156;2023-05-24T02:17:58;14.68;;;3.15;;
789;SDS011;378;48.844;9.156;2023-05-24T02:20:26;11.95;;;3.42;;
789;SDS011;378;48.844;9.156;2023-05-24T02:22:54;9.80;;;3.70;;
789;SDS011;378;48.844;9.156;2023-05-24T02:25:22;13.00;;;3.47;;
789;SDS011;378;48.844;9.156;2023-05-24T02:27:49;12.30;;;3.50;;
789;SDS011;378;48.844;9.156;2023-05-24T02:30:16;16.50;;;3.90;;
789;SDS011;378;48.844;9.156;2023-05-24T02:32:43;14.73;;;3.60;;
789;SDS011;378;48.844;9.156;2023-05-24T02:35:11;13.20;;;3.85;;
789;SDS011;378;48.844;9.156;2023-05-24T02:37:38;12.48;;;3.63;;
789;SDS011;378;48.844;9.156;2023-05-24T02:40:06;13.13;;;3.80;;
789;SDS011;378;48.844;9.156;2023-05-24T02:42:34;15.85;;;3.53;;
789;SDS011;378;48.844;9.156;2023-05-24T02:45:01;10.07;;;3.40;;
789;SDS011;378;48.844;9.156;2023-05-24T02:47:28;14.40;;;3.90;;
789;SDS011;378;48.844;9.156;2023-05-24T02:49:55;13.15;;;3.70;;
789;SDS011;378;48.844;9.156;2023-05-24T02:52:23;11.55;;;3.67;;
789;SDS011;378;48.844;9.156;2023-05-24T02:54:50;10.65;;;4.80;;
789;SDS011;378;48.844;9.156;2023-05-24T02:57:17;8.02;;;3.40;;
789;SDS011;378;48.844;9.156;2023-05-24T02:59:44;14.85;;;4.00;;
789;SDS011;378;48.844;9.156;2023-05-24T03:02:11;11.98;;;3.78;;
789;SDS011;378;48.844;9.156;2023-05-24T03:04:38;12.60;;;4.03;;
789;SDS011;378;48.844;9.156;2023-05-24T03:07:05;10.55;;;3.60;;
789;SDS011;378;48.844;9.156;2023-05-24T03:09:33;12.52;;;3.63;;
789;SDS011;378;48.844;9.156;2023-05-24T03:12:00;9.80;;;3.72;;
789;SDS011;378;48.844;9.156;2023-05-24T03:14:27;13.15;;;3.88;;
789;SDS011;378;48.844;9.156;2023-05-24T03:16:54;10.43;;;3.38;;
789;SDS011;378;48.844;9.156;2023-05-24T03:19:21;11.27;;;3.92;;
789;SDS011;378;48.844;9.156;2023-05-24T03:21:48;13.38;;;3.28;;
789;SDS011;378;48.844;9.156;2023-05-24T03:24:15;11.68;;;3.88;;
789;SDS011;378;48.844;9.156;2023-05-24T03:26:43;11.70;;;3.65;;
789;SDS011;378;48.844;9.156;2023-05-24T03:29:10;16.00;;;3.70;;
789;SDS011;378;48.844;9.156;2023-05-24T03:31:36;11.48;;;4.10;;
789;SDS011;378;48.844;9.156;2023-05-24T03:34:03;9.25;;;3.80;;
789;SDS011;378;48.844;9.156;2023-05-24T03:36:30;14.23;;;4.10;;
789;SDS011;378;48.844;9.156;2023-05-24T03:38:57;20.73;;;4.25;;
789;SDS011;378;48.844;9.156;2023-05-24T03:41:24;14.65;;;3.38;;
789;SDS011;378;48.844;9.156;2023-05-24T03:43:52;14.85;;;4.22;;
789;SDS011;378;48.844;9.156;2023-05-24T03:46:19;10.55;;;3.53;;
789;SDS011;378;48.844;9.156;2023-05-24T03:48:46;13.63;;;4.03;;
789;SDS011;378;48.844;9.156;2023-05-24T03:51:13;8.57;;;3.70;;
789;SDS011;378;48.844;9.156;2023-05-24T03:53:40;12.10;;;4.30;;
789;SDS011;378;48.844;9.156;2023-05-24T03:56:07;11.40;;;3.90;;
789;SDS011;378;48.844;9.156;2023-05-24T03:58:34;11.90;;;4.03;;
789;SDS011;378;48.844;9.156;2023-05-24T04:01:02;14.15;;;4.45;;
789;SDS011;378;48.844;9.156;2023-05-24T04:03:29;16.48;;;4.10;;
789;SDS011;378;48.844;9.156;2023-05-24T04:05:57;15.98;;;4.03;;
789;SDS011;378;48.844;9.156;2023-05-24T04:08:24;9.77;;;4.28;;
789;SDS011;378;48.844;9.156;2023-05-24T04:10:51;12.88;;;4.13;;
789;SDS011;378;48.844;9.156;2023-05-24T04:13:18;13.73;;;4.53;;
789;SDS011;378;48.844;9.156;2023-05-24T04:15:45;12.85;;;3.60;;
789;SDS011;378;48.844;9.156;2023-05-24T04:18:13;10.38;;;3.53;;
789;SDS011;378;48.844;9.156;2023-05-24T04:20:40;18.35;;;3.83;;
789;SDS011;378;48.844;9.156;2023-05-24T04:23:07;13.82;;;4.72;;
789;SDS011;378;48.844;9.156;2023-05-24T04:25:34;14.50;;;4.30;;
789;SDS011;378;48.844;9.156;2023-05-24T04:28:01;14.27;;;3.80;;
789;SDS011;378;48.844;9.156;2023-05-24T04:30:28;22.80;;;5.07;;
789;SDS011;378;48.844;9.156;2023-05-24T04:32:55;14.70;;;4.60;;
789;SDS011;378;48.844;9.156;2023-05-24T04:35:24;15.82;;;4.45;;
789;SDS011;378;48.844;9.156;2023-05-24T04:37:51;12.70;;;4.10;;
789;SDS011;378;48.844;9.156;2023-05-24T04:40:17;13.85;;;3.95;;
789;SDS011;378;48.844;9.156;2023-05-24T04:42:46;13.23;;;3.97;;
789;SDS011;378;48.844;9.156;2023-05-24T04:45:13;14.52;;;4.20;;
789;SDS011;378;48.844;9.156;2023-05-24T04:47:46;12.35;;;4.07;;
789;SDS011;378;48.844;9.156;2023-05-24T04:50:13;11.35;;;4.00;;
789;SDS011;378;48.844;9.156;2023-05-24T04:52:41;16.52;;;4.03;;
789;SDS011;378;48.844;9.156;2023-05-24T04:55:08;16.13;;;4.00;;
789;SDS011;378;48.844;9.156;2023-05-24T04:57:35;13.30;;;3.30;;
789;SDS011;378;48.844;9.156;2023-05-24T05:00:02;16.13;;;4.22;;
789;SDS011;378;48.844;9.156;2023-05-24T05:02:31;13.45;;;3.80;;
789;SDS011;378;48.844;9.156;2023-05-24T05:05:04;10.68;;;3.72;;
789;SDS011;378;48.844;9.156;2023-05-24T05:07:31;15.80;;;3.88;;
789;SDS011;378;48.844;9.156;2023-05-24T05:10:00;11.77;;;3.72;;
789;SDS011;378;48.844;9.156;2023-05-24T05:12:27;13.20;;;3.50;;
789;SDS011;378;48.844;9.156;2023-05-24T05:14:53;13.38;;;3.75;;
789;SDS011;378;48.844;9.156;2023-05-24T05:17:20;17.40;;;3.80;;
789;SDS011;378;48.844;9.156;2023-05-24T05:19:47;15.63;;;3.58;;
789;SDS011;378;48.844;9.156;2023-05-24T05:22:14;14.07;;;3.70;;
789;SDS011;378;48.844;9.156;2023-05-24T05:24:41;10.43;;;3.65;;
789;SDS011;378;48.844;9.156;2023-05-24T05:27:09;12.70;;;3.60;;
789;SDS011;378;48.844;9.156;2023-05-24T05:29:36;12.75;;;3.53;;
789;SDS011;378;48.844;9.156;2023-05-24T05:32:03;19.67;;;4.57;;
789;SDS011;378;48.844;9.156;2023-05-24T05:34:30;13.05;;;4.28;;
789;SDS011;378;48.844;9.156;2023-05-24T05:36:57;13.48;;;3.80;;
789;SDS011;378;48.844;9.156;2023-05-24T05:39:24;14.38;;;3.20;;
789;SDS011;378;48.844;9.156;2023-05-24T05:41:51;14.07;;;3.70;;
789;SDS011;378;48.844;9.156;2023-05-24T05:44:20;10.75;;;3.60;;
789;SDS011;378;48.844;9.156;2023-05-24T05:46:46;14.60;;;3.50;;
789;SDS011;378;48.844;9.156;2023-05-24T05:49:16;16.08;;;4.15;;
789;SDS011;378;48.844;9.156;2023-05-24T05:51:43;10.70;;;3.53;;
789;SDS011;378;48.844;9.156;2023-05-24T05:54:11;11.32;;;3.40;;
789;SDS011;378;48.844;9.156;2023-05-24T05:56:40;11.63;;;3.78;;
789;SDS011;378;48.844;9.156;2023-05-24T05:59:09;16.58;;;3.88;;
789;SDS011;378;48.844;9.156;2023-05-24T06:01:38;16.10;;;3.95;;
789;SDS011;378;48.844;9.156;2023-05-24T06:04:05;7.88;;;3.40;;
789;SDS011;378;48.844;9.156;2023-05-24T06:06:31;14.40;;;3.85;;
789;SDS011;378;48.844;9.156;2023-05-24T06:08:58;18.45;;;3.92;;
789;SDS011;378;48.844;9.156;2023-05-24T06:11:25;13.25;;;3.40;;
789;SDS011;378;48.844;9.156;2023-05-24T06:13:52;13.73;;;3.47;;
789;SDS011;378;48.844;9.156;2023-05-24T06:16:19;19.92;;;4.05;;
789;SDS011;378;48.844;9.156;2023-05-24T06:18:47;22.40;;;3.83;;
789;SDS011;378;48.844;9.156;2023-05-24T06:21:14;12.05;;;3.45;;
789;SDS011;378;48.844;9.156;2023-05-24T06:23:42;13.40;;;3.75;;
789;SDS011;378;48.844;9.156;2023-05-24T06:26:09;16.05;;;3.70;;
789;SDS011;378;48.844;9.156;2023-05-24T06:28:36;17.10;;;3.60;;
789;SDS011;378;48.844;9.156;2023-05-24T06:31:03;15.52;;;3.40;;
789;SDS011;378;48.844;9.156;2023-05-24T06:33:30;11.60;;;3.50;;
789;SDS011;378;48.844;9.156;2023-05-24T06:35:59;14.75;;;3.72;;
789;SDS011;378;48.844;9.156;2023-05-24T06:38:26;12.10;;;3.47;;
789;SDS011;378;48.844;9.156;2023-05-24T06:40:53;17.25;;;3.75;;
789;SDS011;378;48.844;9.156;2023-05-24T06:43:20;20.88;;;4.15;;
789;SDS011;378;48.844;9.156;2023-05-24T06:45:47;13.52;;;3.97;;
789;SDS011;378;48.844;9.156;2023-05-24T06:48:13;12.10;;;3.53;;
789;SDS011;378;48.844;9.156;2023-05-24T06:50:40;15.13;;;3.90;;
789;SDS011;378;48.844;9.156;2023-05-24T06:53:09;11.73;;;3.70;;
789;SDS011;378;48.844;9.156;2023-05-24T06:55:36;17.90;;;4.32;;
789;SDS011;378;48.844;9.156;2023-05-24T06:58:02;20.33;;;3.38;;
789;SDS011;378;48.844;9.156;2023-05-24T07:00:30;14.80;;;3.45;;
789;SDS011;378;48.844;9.156;2023-05-24T07:02:58;14.82;;;3.58;;
789;SDS011;378;48.844;9.156;2023-05-24T07:05:25;14.68;;;3.90;;
789;SDS011;378;48.844;9.156;2023-05-24T07:07:51;15.52;;;3.55;;
789;SDS011;378;48.844;9.156;2023-05-24T07:10:20;12.18;;;3.30;;
789;SDS011;378;48.844;9.156;2023-05-24T07:12:46;15.88;;;3.72;;
789;SDS011;378;48.844;9.156;2023-05-24T07:15:13;11.80;;;3.28;;
789;SDS011;378;48.844;9.156;2023-05-24T07:17:40;16.80;;;3.88;;
789;SDS011;378;48.844;9.156;2023-05-24T07:20:08;22.65;;;3.95;;
789;SDS011;378;48.844;9.156;2023-05-24T07:22:37;17.83;;;3.80;;
789;SDS011;378;48.844;9.156;2023-05-24T07:25:04;13.02;;;3.58;;
789;SDS011;378;48.844;9.156;2023-05-24T07:27:33;12.25;;;3.35;;
789;SDS011;378;48.844;9.156;2023-05-24T07:30:00;14.15;;;4.22;;
789;SDS011;378;48.844;9.156;2023-05-24T07:32:27;16.48;;;3.72;;
789;SDS011;378;48.844;9.156;2023-05-24T07:34:54;17.17;;;3.92;;
789;SDS011;378;48.844;9.156;2023-05-24T07:37:21;17.17;;;4.18;;
789;SDS011;378;48.844;9.156;2023-05-24T07:39:49;14.93;;;3.95;;
789;SDS011;378;48.844;9.156;2023-05-24T07:42:16;11.57;;;3.33;;
789;SDS011;378;48.844;9.156;2023-05-24T07:44:44;18.25;;;3.70;;
789;SDS011;378;48.844;9.156;2023-05-24T07:47:11;16.02;;;3.97;;
789;SDS011;378;48.844;9.156;2023-05-24T07:49:38;20.90;;;3.78;;
789;SDS011;378;48.844;9.156;2023-05-24T07:52:05;13.57;;;3.92;;
789;SDS011;378;48.844;9.156;2023-05-24T07:54:32;12.70;;;3.72;;
789;SDS011;378;48.844;9.156;2023-05-24T07:56:59;13.68;;;3.83;;
789;SDS011;378;48.844;9.156;2023-05-24T07:59:26;17.95;;;3.97;;
789;SDS011;378;48.844;9.156;2023-05-24T08:01:55;17.90;;;4.15;;
789;SDS011;378;48.844;9.156;2023-05-24T08:04:25;10.55;;;3.50;;
789;SDS011;378;48.844;9.156;2023-05-24T08:06:52;15.45;;;3.63;;
789;SDS011;378;48.844;9.156;2023-05-24T08:09:19;14.38;;;3.90;;
789;SDS011;378;48.844;9.156;2023-05-24T08:11:46;13.45;;;3.65;;
789;SDS011;378;48.844;9.156;2023-05-24T08:14:13;17.52;;;3.80;;
789;SDS011;378;48.844;9.156;2023-05-24T08:16:40;9.77;;;3.17;;
789;SDS011;378;48.844;9.156;2023-05-24T08:19:08;12.88;;;3.92;;
789;SDS011;378;48.844;9.156;2023-05-24T08:21:35;15.75;;;3.90;;
789;SDS011;378;48.844;9.156;2023-05-24T08:24:02;10.88;;;3.58;;
789;SDS011;378;48.844;9.156;2023-05-24T08:26:29;18.90;;;3.63;;
789;SDS011;378;48.844;9.156;2023-05-24T08:28:56;13.77;;;3.53;;
789;SDS011;378;48.844;9.156;2023-05-24T08:31:23;10.95;;;3.78;;
789;SDS011;378;48.844;9.156;2023-05-24T08:33:50;15.88;;;4.03;;
789;SDS011;378;48.844;9.156;2023-05-24T08:36:18;14.18;;;3.42;;
789;SDS011;378;48.844;9.156;2023-05-24T08:38:45;16.15;;;4.05;;
789;SDS011;378;48.844;9.156;2023-05-24T08:41:12;10.43;;;3.60;;
789;SDS011;378;48.844;9.156;2023-05-24T08:43:38;17.25;;;3.55;;
789;SDS011;378;48.844;9.156;2023-05-24T08:46:07;14.02;;;3.45;;
789;SDS011;378;48.844;9.156;2023-05-24T08:48:38;11.63;;;3.55;;
789;SDS011;378;48.844;9.156;2023-05-24T08:51:11;17.75;;;4.03;;
789;SDS011;378;48.844;9.156;2023-05-24T08:53:41;10.23;;;3.35;;
789;SDS011;378;48.844;9.156;2023-05-24T08:56:13;13.98;;;3.85;;
789;SDS011;378;48.844;9.156;2023-05-24T08:58:42;15.25;;;4.22;;
789;SDS011;378;48.844;9.156;2023-05-24T09:01:10;12.13;;;3.53;;
789;SDS011;378;48.844;9.156;2023-05-24T09:03:38;17.27;;;4.28;;
789;SDS011;378;48.844;9.156;2023-05-24T09:06:06;10.65;;;3.95;;
789;SDS011;378;48.844;9.156;2023-05-24T09:08:36;15.43;;;3.60;;
789;SDS011;378;48.844;9.156;2023-05-24T09:11:04;13.65;;;3.78;;
789;SDS011;378;48.844;9.156;2023-05-24T09:13:33;15.77;;;4.00;;
789;SDS011;378;48.844;9.156;2023-05-24T09:16:00;15.43;;;4.35;;
789;SDS011;378;48.844;9.156;2023-05-24T09:18:27;12.60;;;4.32;;
789;SDS011;378;48.844;9.156;2023-05-24T09:20:54;13.57;;;3.97;;
789;SDS011;378;48.844;9.156;2023-05-24T09:23:21;19.42;;;4.57;;
789;SDS011;378;48.844;9.156;2023-05-24T09:25:49;16.30;;;3.70;;
789;SDS011;378;48.844;9.156;2023-05-24T09:28:17;11.95;;;3.60;;
789;SDS011;378;48.844;9.156;2023-05-24T09:30:56;11.63;;;3.70;;
789;SDS011;378;48.844;9.156;2023-05-24T09:33:27;13.23;;;3.95;;
789;SDS011;378;48.844;9.156;2023-05-24T09:35:56;13.40;;;3.42;;
789;SDS011;378;48.844;9.156;2023-05-24T09:38:24;15.50;;;4.10;;
789;SDS011;378;48.844;9.156;2023-05-24T09:40:58;16.65;;;4.20;;
789;SDS011;378;48.844;9.156;2023-05-24T09:43:27;18.38;;;4.03;;
789;SDS011;378;48.844;9.156;2023-05-24T09:45:55;14.88;;;3.80;;
789;SDS011;378;48.844;9.156;2023-05-24T09:48:24;9.25;;;3.35;;
789;SDS011;378;48.844;9.156;2023-05-24T09:50:58;17.80;;;4.13;;
789;SDS011;378;48.844;9.156;2023-05-24T09:53:28;17.52;;;3.95;;
789;SDS011;378;48.844;9.156;2023-05-24T09:55:56;14.18;;;4.18;;
789;SDS011;378;48.844;9.156;2023-05-24T09:58:23;12.43;;;3.55;;
789;SDS011;378;48.844;9.156;2023-05-24T10:01:03;12.10;;;3.50;;
789;SDS011;378;48.844;9.156;2023-05-24T10:03:32;12.48;;;3.65;;
789;SDS011;378;48.844;9.156;2023-05-24T10:05:59;11.00;;;3.95;;
789;SDS011;378;48.844;9.156;2023-05-24T10:08:28;14.13;;;4.18;;
789;SDS011;378;48.844;9.156;2023-05-24T10:10:57;13.43;;;4.53;;
789;SDS011;378;48.844;9.156;2023-05-24T10:13:24;16.67;;;3.97;;
789;SDS011;378;48.844;9.156;2023-05-24T10:15:54;19.10;;;3.58;;
789;SDS011;378;48.844;9.156;2023-05-24T10:18:21;12.45;;;3.67;;
789;SDS011;378;48.844;9.156;2023-05-24T10:20:48;16.27;;;4.13;;
789;SDS011;378;48.844;9.156;2023-05-24T10:23:19;19.15;;;4.32;;
789;SDS011;378;48.844;9.156;2023-05-24T10:25:49;15.38;;;4.13;;
789;SDS011;378;48.844;9.156;2023-05-24T10:28:20;17.88;;;4.03;;
789;SDS011;378;48.844;9.156;2023-05-24T10:30:51;20.05;;;4.18;;
789;SDS011;378;48.844;9.156;2023-05-24T10:33:25;13.85;;;4.03;;
789;SDS011;378;48.844;9.156;2023-05-24T10:35:53;12.07;;;3.60;;
789;SDS011;378;48.844;9.156;2023-05-24T10:38:21;11.57;;;3.55;;
789;SDS011;378;48.844;9.156;2023-05-24T10:40:49;14.02;;;3.53;;
789;SDS011;378;48.844;9.156;2023-05-24T10:43:16;12.50;;;3.67;;
789;SDS011;378;48.844;9.156;2023-05-24T10:45:47;19.00;;;3.88;;
789;SDS011;378;48.844;9.156;2023-05-24T10:48:31;15.40;;;3.67;;
789;SDS011;378;48.844;9.156;2023-05-24T10:51:00;40.58;;;5.18;;
789;SDS011;378;48.844;9.156;2023-05-24T10:53:49;10.85;;;3.58;;
789;SDS011;378;48.844;9.156;2023-05-24T10:56:16;17.70;;;3.90;;
789;SDS011;378;48.844;9.156;2023-05-24T10:58:57;14.50;;;4.85;;
789;SDS011;378;48.844;9.156;2023-05-24T11:01:25;8.27;;;3.95;;
789;SDS011;378;48.844;9.156;2023-05-24T11:03:59;18.67;;;4.82;;
789;SDS011;378;48.844;9.156;2023-05-24T11:06:43;19.10;;;3.85;;
789;SDS011;378;48.844;9.156;2023-05-24T11:09:13;23.15;;;3.95;;
789;SDS011;378;48.844;9.156;2023-05-24T11:11:42;13.73;;;3.40;;
789;SDS011;378;48.844;9.156;2023-05-24T11:14:10;13.65;;;3.65;;
789;SDS011;378;48.844;9.156;2023-05-24T11:16:38;17.42;;;3.88;;
789;SDS011;378;48.844;9.156;2023-05-24T11:19:11;18.27;;;4.20;;
789;SDS011;378;48.844;9.156;2023-05-24T11:21:42;13.40;;;3.40;;
789;SDS011;378;48.844;9.156;2023-05-24T11:24:10;15.07;;;3.58;;
789;SDS011;378;48.844;9.156;2023-05-24T11:26:38;11.68;;;3.00;;
789;SDS011;378;48.844;9.156;2023-05-24T11:29:06;12.68;;;2.95;;
789;SDS011;378;48.844;9.156;2023-05-24T11:31:33;18.27;;;3.60;;
789;SDS011;378;48.844;9.156;2023-05-24T11:34:03;12.32;;;3.17;;
789;SDS011;378;48.844;9.156;2023-05-24T11:36:31;14.73;;;3.60;;
789;SDS011;378;48.844;9.156;2023-05-24T11:39:00;13.63;;;3.60;;
789;SDS011;378;48.844;9.156;2023-05-24T11:41:33;12.95;;;3.00;;
789;SDS011;378;48.844;9.156;2023-05-24T11:44:03;15.68;;;3.50;;
789;SDS011;378;48.844;9.156;2023-05-24T11:46:31;11.02;;;3.20;;
789;SDS011;378;48.844;9.156;2023-05-24T11:48:58;12.05;;;3.63;;
789;SDS011;378;48.844;9.156;2023-05-24T11:51:26;10.25;;;3.13;;
789;SDS011;378;48.844;9.156;2023-05-24T11:53:54;10.43;;;3.35;;
789;SDS011;378;48.844;9.156;2023-05-24T11:56:22;10.75;;;3.45;;
789;SDS011;378;48.844;9.156;2023-05-24T11:58:49;17.88;;;3.67;;
789;SDS011;378;48.844;9.156;2023-05-24T12:01:25;9.65;;;3.13;;
789;SDS011;378;48.844;9.156;2023-05-24T12:03:52;19.00;;;3.38;;
789;SDS011;378;48.844;9.156;2023-05-24T12:06:19;15.10;;;3.65;;
789;SDS011;378;48.844;9.156;2023-05-24T12:08:46;13.88;;;3.40;;
789;SDS011;378;48.844;9.156;2023-05-24T12:11:14;11.93;;;2.95;;
789;SDS011;378;48.844;9.156;2023-05-24T12:13:41;9.85;;;3.42;;
789;SDS011;378;48.844;9.156;2023-05-24T12:16:09;21.48;;;4.00;;
789;SDS011;378;48.844;9.156;2023-05-24T12:18:39;12.43;;;3.30;;
789;SDS011;378;48.844;9.156;2023-05-24T12:21:07;12.27;;;3.42;;
789;SDS011;378;48.844;9.156;2023-05-24T12:23:36;9.32;;;3.08;;
789;SDS011;378;48.844;9.156;2023-05-24T12:26:03;11.88;;;3.45;;
789;SDS011;378;48.844;9.156;2023-05-24T12:28:33;14.18;;;3.28;;
789;SDS011;378;48.844;9.156;2023-05-24T12:31:03;13.10;;;2.78;;
789;SDS011;378;48.844;9.156;2023-05-24T12:33:30;12.85;;;2.85;;
789;SDS011;378;48.844;9.156;2023-05-24T12:35:59;16.60;;;3.70;;
789;SDS011;378;48.844;9.156;2023-05-24T12:38:26;11.52;;;2.67;;
789;SDS011;378;48.844;9.156;2023-05-24T12:40:53;16.02;;;3.10;;
789;SDS011;378;48.844;9.156;2023-05-24T12:43:20;14.02;;;3.25;;
789;SDS011;378;48.844;9.156;2023-05-24T12:45:47;13.80;;;2.95;;
789;SDS011;378;48.844;9.156;2023-05-24T12:48:14;10.88;;;3.35;;
789;SDS011;378;48.844;9.156;2023-05-24T12:50:41;12.30;;;3.40;;
789;SDS011;378;48.844;9.156;2023-05-24T12:53:09;9.65;;;3.25;;
789;SDS011;378;48.844;9.156;2023-05-24T12:55:36;50.08;;;4.38;;
789;SDS011;378;48.844;9.156;2023-05-24T12:58:05;13.50;;;3.40;;
789;SDS011;378;48.844;9.156;2023-05-24T13:00:33;12.40;;;3.10;;
789;SDS011;378;48.844;9.156;2023-05-24T13:03:00;10.90;;;2.80;;
789;SDS011;378;48.844;9.156;2023-05-24T13:05:27;10.18;;;2.78;;
789;SDS011;378;48.844;9.156;2023-05-24T13:07:55;15.20;;;3.28;;
789;SDS011;378;48.844;9.156;2023-05-24T13:10:23;9.77;;;3.05;;
789;SDS011;378;48.844;9.156;2023-05-24T13:12:51;8.95;;;3.03;;
789;SDS011;378;48.844;9.156;2023-05-24T13:15:18;8.75;;;2.58;;
789;SDS011;378;48.844;9.156;2023-05-24T13:17:47;14.05;;;3.03;;
789;SDS011;378;48.844;9.156;2023-05-24T13:20:14;12.35;;;2.95;;
789;SDS011;378;48.844;9.156;2023-05-24T13:22:43;10.23;;;2.90;;
789;SDS011;378;48.844;9.156;2023-05-24T13:25:09;9.50;;;2.78;;
789;SDS011;378;48.844;9.156;2023-05-24T13:27:38;8.15;;;2.80;;
789;SDS011;378;48.844;9.156;2023-05-24T13:30:05;11.45;;;3.15;;
789;SDS011;378;48.844;9.156;2023-05-24T13:32:33;11.68;;;2.70;;
789;SDS011;378;48.844;9.156;2023-05-24T13:35:00;11.35;;;2.63;;
789;SDS011;378;48.844;9.156;2023-05-24T13:37:27;11.63;;;3.03;;
789;SDS011;378;48.844;9.156;2023-05-24T13:39:54;8.15;;;1.88;;
789;SDS011;378;48.844;9.156;2023-05-24T13:42:20;9.70;;;2.33;;
789;SDS011;378;48.844;9.156;2023-05-24T13:44:49;9.73;;;2.63;;
789;SDS011;378;48.844;9.156;2023-05-24T13:47:16;8.40;;;2.55;;
789;SDS011;378;48.844;9.156;2023-05-24T13:49:43;7.57;;;2.45;;
789;SDS011;378;48.844;9.156;2023-05-24T13:52:11;8.93;;;2.30;;
789;SDS011;378;48.844;9.156;2023-05-24T13:54:37;11.43;;;2.85;;
789;SDS011;378;48.844;9.156;2023-05-24T13:57:04;10.00;;;2.65;;
789;SDS011;378;48.844;9.156;2023-05-24T13:59:31;9.30;;;2.97;;
789;SDS011;378;48.844;9.156;2023-05-24T14:01:59;11.32;;;3.05;;
789;SDS011;378;48.844;9.156;2023-05-24T14:04:26;8.82;;;2.20;;
789;SDS011;378;48.844;9.156;2023-05-24T14:06:54;7.55;;;2.30;;
789;SDS011;378;48.844;9.156;2023-05-24T14:09:21;10.00;;;2.55;;
789;SDS011;378;48.844;9.156;2023-05-24T14:11:50;12.10;;;2.53;;
789;SDS011;378;48.844;9.156;2023-05-24T14:14:17;10.52;;;2.47;;
789;SDS011;378;48.844;9.156;2023-05-24T14:16:44;8.25;;;2.45;;
789;SDS011;378;48.844;9.156;2023-05-24T14:19:16;9.27;;;2.60;;
789;SDS011;378;48.844;9.156;2023-05-24T14:21:43;10.55;;;2.85;;
789;SDS011;378;48.844;9.156;2023-05-24T14:24:10;7.82;;;2.20;;
789;SDS011;378;48.844;9.156;2023-05-24T14:26:37;7.35;;;2.40;;
789;SDS011;378;48.844;9.156;2023-05-24T14:29:05;14.27;;;2.60;;
789;SDS011;378;48.844;9.156;2023-05-24T14:31:32;14.15;;;2.30;;
789;SDS011;378;48.844;9.156;2023-05-24T14:33:59;7.80;;;2.50;;
789;SDS011;378;48.844;9.156;2023-05-24T14:36:28;9.07;;;2.05;;
789;SDS011;378;48.844;9.156;2023-05-24T14:38:55;6.32;;;2.42;;
789;SDS011;378;48.844;9.156;2023-05-24T14:41:22;8.18;;;2.20;;
789;SDS011;378;48.844;9.156;2023-05-24T14:43:49;10.52;;;2.10;;
789;SDS011;378;48.844;9.156;2023-05-24T14:46:16;9.38;;;2.13;;
789;SDS011;378;48.844;9.156;2023-05-24T14:48:42;9.98;;;2.55;;
789;SDS011;378;48.844;9.156;2023-05-24T14:51:10;13.05;;;2.72;;
789;SDS011;378;48.844;9.156;2023-05-24T14:53:38;9.25;;;2.28;;
789;SDS011;378;48.844;9.156;2023-05-24T14:56:05;14.40;;;2.60;;
789;SDS011;378;48.844;9.156;2023-05-24T14:58:33;7.15;;;2.20;;
789;SDS011;378;48.844;9.156;2023-05-24T15:01:00;7.65;;;2.20;;
789;SDS011;378;48.844;9.156;2023-05-24T15:03:27;8.68;;;2.10;;
789;SDS011;378;48.844;9.156;2023-05-24T15:05:54;7.13;;;1.90;;
789;SDS011;378;48.844;9.156;2023-05-24T15:08:21;10.60;;;2.22;;
789;SDS011;378;48.844;9.156;2023-05-24T15:10:49;9.40;;;2.25;;
789;SDS011;378;48.844;9.156;2023-05-24T15:13:16;11.93;;;2.15;;
789;SDS011;378;48.844;9.156;2023-05-24T15:15:44;8.65;;;2.13;;
789;SDS011;378;48.844;9.156;2023-05-24T15:18:11;10.52;;;2.10;;
789;SDS011;378;48.844;9.156;2023-05-24T15:20:38;10.10;;;1.83;;
789;SDS011;378;48.844;9.156;2023-05-24T15:23:05;8.52;;;2.15;;
789;SDS011;378;48.844;9.156;2023-05-24T15:25:34;10.52;;;1.92;;
789;SDS011;378;48.844;9.156;2023-05-24T15:28:02;6.80;;;2.00;;
789;SDS011;378;48.844;9.156;2023-05-24T15:30:29;7.72;;;2.20;;
789;SDS011;378;48.844;9.156;2023-05-24T15:32:56;11.40;;;2.03;;
789;SDS011;378;48.844;9.156;2023-05-24T15:35:23;9.95;;;2.10;;
789;SDS011;378;48.844;9.156;2023-05-24T15:37:50;5.18;;;1.95;;
789;SDS011;378;48.844;9.156;2023-05-24T15:40:17;7.07;;;1.92;;